Barton, New York
Current Conditions -  °F | °C
As of 12:53 PM on Monday 24 Nov 2014 (Local Time) from KELM Reporting Station
Broken Clouds Broken Clouds  
Wind Chill: 20°   Ceiling: 4800
Heat Index: 20°   Visibility: 10mi
Dew Point: 11°   Wind: 21mph
Humidity: 56%   Direction: 200°SSW
Pressure: 29.39"   Gusts: 39mph
Location:  42.04°N, 76.45°W
Report Text: KELM 241753Z 20018G34KT 10SM FEW039 BKN048 20/11 A2939 RMK AO2 PK WND 21034/1745 SLP948 T02000111 10206 20161 58028
Loading
Personal Weather Stations






























Interactive Weather Map New forecast layout! Learn more

10-Day Weather Forecast

Advertisements
Track Severe Weather on mobile